createdAt,value
2019-03-16T00:00:06.388Z,91.7
2019-03-16T00:00:56.180Z,91.7
2019-03-16T00:01:56.392Z,91.7
2019-03-16T00:02:36.184Z,91.9
2019-03-16T00:03:26.321Z,91.8
2019-03-16T00:04:16.556Z,91.8
2019-03-16T00:05:06.635Z,92
2019-03-16T00:05:56.196Z,92
2019-03-16T00:06:46.518Z,92
2019-03-16T00:07:36.218Z,91.9
2019-03-16T00:08:26.462Z,92
2019-03-16T00:09:16.183Z,91.9
2019-03-16T00:10:06.744Z,92
2019-03-16T00:10:56.434Z,91.9
2019-03-16T00:11:46.569Z,91.8
2019-03-16T00:12:36.453Z,91.8
2019-03-16T00:13:26.441Z,91.8
2019-03-16T00:14:16.523Z,91.7
2019-03-16T00:15:06.453Z,91.6
2019-03-16T00:15:56.463Z,91.4
2019-03-16T00:16:46.560Z,91.4
2019-03-16T00:17:36.438Z,91.4
2019-03-16T00:18:27.298Z,91.3
2019-03-16T00:19:17.258Z,91.1
2019-03-16T00:20:07.709Z,90.9
2019-03-16T00:20:57.287Z,90.6
2019-03-16T00:21:47.250Z,90.7
2019-03-16T00:22:37.257Z,90.6
2019-03-16T00:23:27.453Z,90.6
2019-03-16T00:24:17.251Z,90.5
2019-03-16T00:25:07.287Z,90.5
2019-03-16T00:25:57.275Z,90.3
2019-03-16T00:26:47.932Z,90.3
2019-03-16T00:27:37.953Z,90.3
2019-03-16T00:28:27.937Z,90.3
2019-03-16T00:29:17.942Z,90.3
2019-03-16T00:30:07.976Z,90.3
2019-03-16T00:30:57.938Z,90.2
2019-03-16T00:31:47.942Z,90.2
2019-03-16T00:32:38.878Z,90.1
2019-03-16T00:33:28.853Z,90.1
2019-03-16T00:34:18.900Z,90.2
2019-03-16T00:35:08.857Z,90.1
2019-03-16T00:35:58.846Z,90
2019-03-16T00:36:48.904Z,89.9
2019-03-16T00:37:38.873Z,90
2019-03-16T00:38:28.849Z,90
2019-03-16T00:39:18.871Z,90
2019-03-16T00:40:08.866Z,90
2019-03-16T00:40:59.096Z,90.1
2019-03-16T00:41:49.189Z,90.1
2019-03-16T00:42:40.045Z,90.2
2019-03-16T00:43:30.024Z,90.2
2019-03-16T00:44:20.066Z,90.3
2019-03-16T00:45:10.046Z,90.3
2019-03-16T00:46:00.089Z,90.3
2019-03-16T00:46:50.652Z,90.3
2019-03-16T00:47:40.099Z,90.4
2019-03-16T00:48:30.047Z,90.4
2019-03-16T00:49:21.500Z,90.5
2019-03-16T00:50:11.416Z,90.4
2019-03-16T00:51:01.546Z,90.5
2019-03-16T00:51:51.471Z,90.6
2019-03-16T00:52:41.451Z,90.5
2019-03-16T00:53:31.418Z,90.5
2019-03-16T00:54:21.379Z,90.5
2019-03-16T00:55:11.431Z,90.5
2019-03-16T00:56:02.249Z,90.5
2019-03-16T00:56:52.293Z,90.5
2019-03-16T00:57:42.244Z,90.4
2019-03-16T00:58:32.213Z,90.4
2019-03-16T00:59:22.203Z,90.4
2019-03-16T01:00:12.199Z,90.4
2019-03-16T01:01:02.193Z,90.4
2019-03-16T01:01:52.219Z,90.3
2019-03-16T01:02:42.210Z,90.3
2019-03-16T01:03:32.416Z,90.3
2019-03-16T01:04:22.456Z,90.3
2019-03-16T01:05:12.491Z,90.3
2019-03-16T01:06:03.078Z,90.2
2019-03-16T01:06:53.016Z,90.2
2019-03-16T01:07:43.004Z,90.3
2019-03-16T01:08:33.011Z,90.3
2019-03-16T01:09:23.001Z,90.2
2019-03-16T01:10:13.017Z,90.3
2019-03-16T01:11:02.999Z,90.3
2019-03-16T01:11:53.046Z,90.3
2019-03-16T01:12:43.065Z,90.3
2019-03-16T01:13:33.043Z,90.3
2019-03-16T01:14:22.972Z,90.1
2019-03-16T01:15:13.003Z,90.1
2019-03-16T01:16:05.738Z,90.2
2019-03-16T01:16:55.763Z,90.2
2019-03-16T01:17:45.732Z,90.3
2019-03-16T01:18:35.765Z,90.2
2019-03-16T01:19:26.205Z,90.2
2019-03-16T01:20:16.819Z,90.2
2019-03-16T01:21:06.891Z,90.2
2019-03-16T01:21:56.857Z,90.2
2019-03-16T01:22:46.919Z,90.2
2019-03-16T01:23:36.848Z,90.2
2019-03-16T01:24:26.852Z,90.2
2019-03-16T01:25:16.873Z,90.3
2019-03-16T01:26:06.873Z,90.1
2019-03-16T01:26:56.869Z,90.2
2019-03-16T01:27:46.930Z,90.2
2019-03-16T01:28:36.836Z,90.3
2019-03-16T01:29:26.824Z,90.2
2019-03-16T01:30:17.545Z,90.2
2019-03-16T01:31:07.609Z,90.3
2019-03-16T01:31:57.766Z,90.4
2019-03-16T01:32:47.514Z,90.4
2019-03-16T01:33:37.536Z,90.3
2019-03-16T01:34:27.602Z,90.6
2019-03-16T01:35:17.554Z,90.4
2019-03-16T01:36:07.519Z,90.4
2019-03-16T01:36:57.557Z,90.4
2019-03-16T01:37:47.546Z,90.4
2019-03-16T01:38:37.547Z,90.3
2019-03-16T01:39:27.552Z,90.3
2019-03-16T01:40:17.525Z,90.3
2019-03-16T01:41:07.604Z,90.3
2019-03-16T01:41:57.578Z,90.3
2019-03-16T01:42:47.510Z,90.2
2019-03-16T01:43:37.525Z,90.1
2019-03-16T01:44:27.534Z,90.2
2019-03-16T01:45:34.128Z,90.3
2019-03-16T01:46:08.888Z,90.3
2019-03-16T01:46:58.878Z,90.1
2019-03-16T01:47:48.926Z,90.1
2019-03-16T01:48:38.945Z,90.1
2019-03-16T01:49:28.915Z,90
2019-03-16T01:50:21.482Z,90.1
2019-03-16T01:51:08.951Z,90.1
2019-03-16T01:51:58.912Z,90.1
2019-03-16T01:52:49.086Z,90.2
2019-03-16T01:53:38.923Z,90.1
2019-03-16T01:54:28.968Z,90.2
2019-03-16T01:55:18.916Z,90.2
2019-03-16T01:56:08.901Z,90.1
2019-03-16T01:56:58.932Z,90.2
2019-03-16T01:57:49.359Z,90.2
2019-03-16T01:58:39.165Z,90.2
2019-03-16T01:59:29.155Z,90.3
2019-03-16T02:00:20.272Z,90.4
2019-03-16T02:01:10.313Z,90.4
2019-03-16T02:02:00.578Z,90.4
2019-03-16T02:02:55.268Z,90.4
2019-03-16T02:03:40.311Z,90.5
2019-03-16T02:04:30.364Z,90.4
2019-03-16T02:05:20.336Z,90.4
2019-03-16T02:06:10.286Z,90.5
2019-03-16T02:07:00.815Z,90.5
2019-03-16T02:07:50.856Z,90.7
2019-03-16T02:08:40.816Z,90.6
2019-03-16T02:09:30.876Z,90.7
2019-03-16T02:10:20.860Z,90.7
2019-03-16T02:11:10.848Z,90.7
2019-03-16T02:12:01.408Z,90.8
2019-03-16T02:12:52.205Z,90.8
2019-03-16T02:13:41.464Z,90.9
2019-03-16T02:14:31.397Z,90.9
2019-03-16T02:15:38.164Z,90.9
2019-03-16T02:16:11.767Z,90.9
2019-03-16T02:17:01.637Z,90.9
2019-03-16T02:17:51.678Z,90.9
2019-03-16T02:18:41.645Z,90.9
2019-03-16T02:19:31.648Z,90.9
2019-03-16T02:20:21.640Z,90.9
2019-03-16T02:21:11.678Z,90.9
2019-03-16T02:22:01.747Z,90.9
2019-03-16T02:22:52.619Z,91
2019-03-16T02:23:41.633Z,91
2019-03-16T02:24:31.647Z,90.9
2019-03-16T02:25:21.643Z,90.9
2019-03-16T02:26:11.608Z,90.9
2019-03-16T02:27:01.859Z,90.7
2019-03-16T02:27:51.897Z,90.9
2019-03-16T02:28:42.062Z,90.9
2019-03-16T02:29:31.895Z,90.9
2019-03-16T02:30:21.868Z,90.9
2019-03-16T02:31:12.060Z,90.8
2019-03-16T02:32:02.086Z,91
2019-03-16T02:32:52.015Z,91
2019-03-16T02:33:42.089Z,90.9
2019-03-16T02:34:32.209Z,90.9
2019-03-16T02:35:21.980Z,90.9
2019-03-16T02:36:11.922Z,91
2019-03-16T02:37:01.901Z,90.9
2019-03-16T02:37:51.937Z,91
2019-03-16T02:38:41.905Z,91
2019-03-16T02:39:31.862Z,91
2019-03-16T02:40:22.061Z,91.1
2019-03-16T02:41:11.906Z,91
2019-03-16T02:42:01.893Z,91.1
2019-03-16T02:42:52.226Z,91
2019-03-16T02:43:41.867Z,91
2019-03-16T02:44:33.398Z,91.1
2019-03-16T02:45:22.041Z,91.1
2019-03-16T02:46:11.937Z,91.1
2019-03-16T02:47:01.882Z,91.1
2019-03-16T02:47:52.127Z,91
2019-03-16T02:48:41.911Z,91.1
2019-03-16T02:49:33.075Z,91
2019-03-16T02:50:22.908Z,91.1
2019-03-16T02:51:12.950Z,91
2019-03-16T02:52:02.950Z,91.1
2019-03-16T02:52:52.948Z,91.1
2019-03-16T02:53:42.968Z,91.1
2019-03-16T02:54:34.702Z,91.1
2019-03-16T02:55:23.834Z,91.1
2019-03-16T02:56:13.824Z,91
2019-03-16T02:57:03.963Z,91.1
2019-03-16T02:57:53.860Z,91.1
2019-03-16T02:58:43.835Z,91.1
2019-03-16T02:59:35.601Z,91.1
2019-03-16T03:00:23.846Z,91.1
2019-03-16T03:01:13.853Z,91.1
2019-03-16T03:02:03.820Z,91.1
2019-03-16T03:02:55.370Z,91.1
2019-03-16T03:03:45.330Z,91.1
2019-03-16T03:04:35.276Z,91.1
2019-03-16T03:05:25.305Z,91.2
2019-03-16T03:06:15.356Z,91.2
2019-03-16T03:07:05.317Z,91.2
2019-03-16T03:07:55.276Z,91.2
2019-03-16T03:08:45.270Z,91.2
2019-03-16T03:09:37.169Z,91.2
2019-03-16T03:10:25.312Z,91.2
2019-03-16T03:11:15.323Z,91.2
2019-03-16T03:12:05.279Z,91.2
2019-03-16T03:12:55.327Z,91.2
2019-03-16T03:13:45.324Z,91.2
2019-03-16T03:14:38.078Z,91.2
2019-03-16T03:15:25.297Z,91.2
2019-03-16T03:16:15.311Z,91.2
2019-03-16T03:17:05.306Z,91.2
2019-03-16T03:17:55.301Z,91.1
2019-03-16T03:18:49.276Z,91.2
2019-03-16T03:19:35.339Z,91.2
2019-03-16T03:20:25.338Z,91.2
2019-03-16T03:21:15.319Z,91.2
2019-03-16T03:22:05.291Z,91.1
2019-03-16T03:22:55.484Z,91.1
2019-03-16T03:23:45.299Z,91.1
2019-03-16T03:24:35.550Z,91.1
2019-03-16T03:25:25.344Z,91.1
2019-03-16T03:26:15.332Z,91.1
2019-03-16T03:27:05.313Z,91.1
2019-03-16T03:27:55.354Z,91.1
2019-03-16T03:28:45.639Z,91.1
2019-03-16T03:29:35.545Z,91.1
2019-03-16T03:30:25.542Z,91.1
2019-03-16T03:31:15.538Z,91.1
2019-03-16T03:32:05.542Z,91.1
2019-03-16T03:32:55.763Z,91
2019-03-16T03:33:59.571Z,91
2019-03-16T03:34:35.562Z,91
2019-03-16T03:35:29.159Z,91
2019-03-16T03:36:15.564Z,91
2019-03-16T03:37:05.613Z,91
2019-03-16T03:37:55.564Z,90.9
2019-03-16T03:38:45.700Z,90.9
2019-03-16T03:39:35.590Z,91
2019-03-16T03:40:25.613Z,91
2019-03-16T03:41:15.608Z,90.9
2019-03-16T03:42:05.630Z,90.9
2019-03-16T03:42:55.595Z,90.9
2019-03-16T03:43:45.556Z,90.9
2019-03-16T03:44:35.785Z,90.9
2019-03-16T03:45:26.023Z,90.9
2019-03-16T03:46:15.821Z,91
2019-03-16T03:47:05.837Z,90.9
2019-03-16T03:47:55.799Z,90.9
2019-03-16T03:48:45.828Z,90.9
2019-03-16T03:49:36.060Z,90.9
2019-03-16T03:50:26.076Z,90.8
2019-03-16T03:51:16.102Z,90.9
2019-03-16T03:52:06.071Z,90.9
2019-03-16T03:52:56.121Z,90.9
2019-03-16T03:53:46.064Z,90.9
2019-03-16T03:54:36.112Z,90.9
2019-03-16T03:55:26.088Z,90.9
2019-03-16T03:56:16.064Z,90.9
2019-03-16T03:57:06.069Z,90.9
2019-03-16T03:57:56.065Z,90.9
2019-03-16T03:58:46.133Z,90.9
2019-03-16T03:59:36.295Z,90.9
2019-03-16T04:00:26.324Z,91
2019-03-16T04:01:16.306Z,91
2019-03-16T04:02:06.270Z,91
2019-03-16T04:02:56.615Z,91
2019-03-16T04:03:47.102Z,91
2019-03-16T04:04:36.930Z,91
2019-03-16T04:05:26.777Z,91
2019-03-16T04:06:16.330Z,91.1
2019-03-16T04:07:06.602Z,91.1
2019-03-16T04:07:56.327Z,91.1
2019-03-16T04:08:46.581Z,91.2
2019-03-16T04:09:36.446Z,91.2
2019-03-16T04:10:26.369Z,91.2
2019-03-16T04:11:16.356Z,91.2
2019-03-16T04:12:06.366Z,91.2
2019-03-16T04:12:57.864Z,91.2
2019-03-16T04:13:47.847Z,91.2
2019-03-16T04:14:37.882Z,91.2
2019-03-16T04:15:27.840Z,91.2
2019-03-16T04:16:17.858Z,91.2
2019-03-16T04:17:07.886Z,91.2
2019-03-16T04:17:57.897Z,91.3
2019-03-16T04:18:51.570Z,91.2
2019-03-16T04:19:37.881Z,91.3
2019-03-16T04:20:27.845Z,91.2
2019-03-16T04:21:17.882Z,91.2
2019-03-16T04:22:07.911Z,91.2
2019-03-16T04:22:57.830Z,91.2
2019-03-16T04:23:48.663Z,91.2
2019-03-16T04:24:37.861Z,91.3
2019-03-16T04:25:27.835Z,91.2
2019-03-16T04:26:17.854Z,91.2
2019-03-16T04:27:15.445Z,91.3
2019-03-16T04:27:57.867Z,91.3
2019-03-16T04:28:49.803Z,91.3
2019-03-16T04:29:37.864Z,91.3
2019-03-16T04:30:27.921Z,91.3
2019-03-16T04:31:17.924Z,91.4
2019-03-16T04:32:07.866Z,91.4
2019-03-16T04:32:58.207Z,91.4
2019-03-16T04:33:50.354Z,91.4
2019-03-16T04:34:37.856Z,91.4
2019-03-16T04:35:27.872Z,91.4
2019-03-16T04:36:17.891Z,91.5
2019-03-16T04:37:07.824Z,91.5
2019-03-16T04:37:57.844Z,91.5
2019-03-16T04:38:47.912Z,91.5
2019-03-16T04:39:37.834Z,91.5
2019-03-16T04:40:27.907Z,91.5
2019-03-16T04:41:17.964Z,91.5
2019-03-16T04:42:07.887Z,91.6
2019-03-16T04:42:57.993Z,91.5
2019-03-16T04:43:47.981Z,91.6
2019-03-16T04:44:37.840Z,91.6
2019-03-16T04:45:28.930Z,91.6
2019-03-16T04:46:18.901Z,91.6
2019-03-16T04:47:08.931Z,91.6
2019-03-16T04:47:58.849Z,91.6
2019-03-16T04:48:49.111Z,91.7
2019-03-16T04:49:38.883Z,91.6
2019-03-16T04:50:28.954Z,91.7
2019-03-16T04:51:18.920Z,91.7
2019-03-16T04:52:08.909Z,91.6
2019-03-16T04:52:58.920Z,91.7
2019-03-16T04:53:48.936Z,91.7
2019-03-16T04:54:38.920Z,91.7
2019-03-16T04:55:28.876Z,91.7
2019-03-16T04:56:18.910Z,91.7
2019-03-16T04:57:10.117Z,91.7
2019-03-16T04:58:00.711Z,91.7
2019-03-16T04:58:51.709Z,91.7
2019-03-16T04:59:40.362Z,91.7
2019-03-16T05:00:30.390Z,91.7
2019-03-16T05:01:20.330Z,91.7
2019-03-16T05:02:10.376Z,91.7
2019-03-16T05:03:00.557Z,91.7
2019-03-16T05:03:50.357Z,91.7
2019-03-16T05:04:42.576Z,91.7
2019-03-16T05:05:30.343Z,91.7
2019-03-16T05:06:20.585Z,91.7
2019-03-16T05:07:10.607Z,91.7
2019-03-16T05:08:00.613Z,91.7
2019-03-16T05:08:50.596Z,91.7
2019-03-16T05:09:40.591Z,91.7
2019-03-16T05:10:30.599Z,91.7
2019-03-16T05:11:20.669Z,91.8
2019-03-16T05:12:10.649Z,91.8
2019-03-16T05:13:00.949Z,91.8
2019-03-16T05:13:50.629Z,91.9
2019-03-16T05:14:40.591Z,91.9
2019-03-16T05:15:30.588Z,91.9
2019-03-16T05:16:20.590Z,91.9
2019-03-16T05:17:10.614Z,91.9
2019-03-16T05:18:00.567Z,91.9
2019-03-16T05:18:50.631Z,91.9
2019-03-16T05:19:40.642Z,92
2019-03-16T05:20:30.948Z,92
2019-03-16T05:21:20.658Z,92
2019-03-16T05:22:10.864Z,92
2019-03-16T05:23:00.823Z,92.1
2019-03-16T05:23:50.861Z,92.1
2019-03-16T05:24:40.944Z,92.1
2019-03-16T05:25:30.833Z,92.1
2019-03-16T05:26:20.885Z,92.1
2019-03-16T05:27:10.849Z,92.1
2019-03-16T05:28:00.957Z,92.1
2019-03-16T05:28:51.558Z,92.1
2019-03-16T05:29:41.542Z,92.1
2019-03-16T05:30:31.568Z,92.1
2019-03-16T05:31:21.552Z,92.2
2019-03-16T05:32:11.525Z,92.2
2019-03-16T05:33:01.631Z,92.2
2019-03-16T05:33:51.672Z,92.1
2019-03-16T05:34:55.544Z,92.2
2019-03-16T05:35:31.734Z,92.2
2019-03-16T05:36:21.612Z,92.2
2019-03-16T05:37:11.719Z,92.2
2019-03-16T05:38:01.897Z,92.3
2019-03-16T05:38:51.601Z,92.3
2019-03-16T05:39:41.754Z,92.3
2019-03-16T05:40:31.522Z,92.3
2019-03-16T05:41:21.571Z,92.3
2019-03-16T05:42:11.613Z,92.3
2019-03-16T05:43:01.541Z,92.3
2019-03-16T05:43:51.569Z,92.3
2019-03-16T05:44:41.585Z,92.3
2019-03-16T05:45:34.876Z,92.3
2019-03-16T05:46:24.934Z,92.3
2019-03-16T05:47:14.880Z,92.3
2019-03-16T05:48:04.856Z,92.2
2019-03-16T05:48:54.827Z,92.3
2019-03-16T05:49:44.849Z,92.2
2019-03-16T05:50:34.842Z,92.2
2019-03-16T05:51:24.797Z,92.2
2019-03-16T05:52:14.840Z,92.2
2019-03-16T05:53:07.189Z,92.2
2019-03-16T05:53:54.809Z,92.2
2019-03-16T05:54:45.507Z,92.2
2019-03-16T05:55:35.514Z,92.2
2019-03-16T05:56:25.547Z,92.2
2019-03-16T05:57:15.598Z,92.2
2019-03-16T05:58:05.498Z,92.2
2019-03-16T05:58:55.661Z,92.2
2019-03-16T05:59:46.083Z,92.2
2019-03-16T06:00:35.552Z,92.1
2019-03-16T06:01:25.576Z,92.1
2019-03-16T06:02:15.705Z,92.1
2019-03-16T06:03:07.769Z,92.1
2019-03-16T06:03:56.563Z,92
2019-03-16T06:04:47.007Z,92
2019-03-16T06:05:37.697Z,92
2019-03-16T06:06:27.481Z,92
2019-03-16T06:07:17.070Z,92
2019-03-16T06:08:06.927Z,92
2019-03-16T06:08:57.301Z,91.9
2019-03-16T06:09:47.035Z,91.9
2019-03-16T06:10:37.149Z,91.9
2019-03-16T06:11:26.979Z,91.9
2019-03-16T06:12:16.983Z,91.9
2019-03-16T06:13:07.518Z,92
2019-03-16T06:13:56.956Z,92
2019-03-16T06:14:47.183Z,92
2019-03-16T06:15:37.000Z,92
2019-03-16T06:16:27.025Z,92.1
2019-03-16T06:17:16.973Z,92
2019-03-16T06:18:07.904Z,92.1
2019-03-16T06:18:57.017Z,92
2019-03-16T06:19:47.027Z,92
2019-03-16T06:20:36.935Z,92
2019-03-16T06:21:26.950Z,92
2019-03-16T06:22:16.974Z,92
2019-03-16T06:23:08.765Z,92
2019-03-16T06:23:57.024Z,92
2019-03-16T06:24:47.042Z,92.1
2019-03-16T06:25:36.962Z,92.1
2019-03-16T06:26:26.959Z,92.2
2019-03-16T06:27:17.061Z,92.2
2019-03-16T06:28:08.269Z,92.2
2019-03-16T06:28:56.985Z,92.3
2019-03-16T06:29:47.039Z,92.3
2019-03-16T06:30:36.976Z,92.3
2019-03-16T06:31:26.959Z,92.3
2019-03-16T06:32:16.989Z,92.3
2019-03-16T06:33:08.812Z,92.3
2019-03-16T06:33:57.024Z,92.3
2019-03-16T06:34:47.046Z,92.4
2019-03-16T06:35:36.983Z,92.3
2019-03-16T06:36:26.978Z,92.4
2019-03-16T06:37:16.933Z,92.4
2019-03-16T06:38:07.134Z,92.4
2019-03-16T06:38:56.940Z,92.4
2019-03-16T06:39:47.010Z,92.4
2019-03-16T06:40:36.957Z,92.4
2019-03-16T06:41:27.712Z,92.5
2019-03-16T06:42:17.680Z,92.5
2019-03-16T06:43:07.833Z,92.5
2019-03-16T06:43:57.938Z,92.6
2019-03-16T06:44:47.934Z,92.6
2019-03-16T06:45:37.944Z,92.6
2019-03-16T06:46:27.939Z,92.7
2019-03-16T06:47:18.113Z,92.7
2019-03-16T06:48:08.020Z,92.7
2019-03-16T06:48:57.907Z,92.8
2019-03-16T06:49:48.179Z,93
2019-03-16T06:50:38.183Z,93.1
2019-03-16T06:51:28.215Z,93.1
2019-03-16T06:52:18.185Z,93.2
2019-03-16T06:53:08.189Z,93.3
2019-03-16T06:53:58.238Z,93.2
2019-03-16T06:54:48.428Z,93.3
2019-03-16T06:55:38.355Z,93.3
2019-03-16T06:56:28.417Z,93.3
2019-03-16T06:57:18.626Z,93.2
2019-03-16T06:58:09.676Z,93.2
2019-03-16T06:58:59.520Z,93.3
2019-03-16T06:59:49.460Z,93.4
2019-03-16T07:00:39.487Z,93.3
2019-03-16T07:01:29.463Z,93.4
2019-03-16T07:02:19.476Z,93.5
2019-03-16T07:03:09.456Z,93.6
2019-03-16T07:03:59.508Z,93.6
2019-03-16T07:04:49.622Z,93.7
2019-03-16T07:05:39.480Z,93.8
2019-03-16T07:06:29.477Z,93.8
2019-03-16T07:07:20.404Z,93.9
2019-03-16T07:08:09.457Z,94.1
2019-03-16T07:09:00.039Z,94
2019-03-16T07:09:51.326Z,94.2
2019-03-16T07:10:41.295Z,94.1
2019-03-16T07:11:31.313Z,94.1
2019-03-16T07:12:21.306Z,94.1
2019-03-16T07:13:11.340Z,94.1
2019-03-16T07:14:01.349Z,94.2
2019-03-16T07:14:51.367Z,94.4
2019-03-16T07:15:43.881Z,94.3
2019-03-16T07:16:33.833Z,94.3
2019-03-16T07:17:23.908Z,94.4
2019-03-16T07:18:17.195Z,94.4
2019-03-16T07:19:03.899Z,94.4
2019-03-16T07:19:53.866Z,94.3
2019-03-16T07:20:43.977Z,94.3
2019-03-16T07:21:35.069Z,94.5
2019-03-16T07:22:25.146Z,94.5
2019-03-16T07:23:18.433Z,94.5
2019-03-16T07:24:05.078Z,94.7
2019-03-16T07:24:55.111Z,94.7
2019-03-16T07:25:45.086Z,94.7
2019-03-16T07:26:35.334Z,94.6
2019-03-16T07:27:26.506Z,94.6
2019-03-16T07:28:19.012Z,94.6
2019-03-16T07:29:05.332Z,94.5
2019-03-16T07:29:55.475Z,94.5
2019-03-16T07:30:45.401Z,94.7
2019-03-16T07:31:35.363Z,95
2019-03-16T07:32:25.317Z,94.8
2019-03-16T07:33:15.616Z,94.8
2019-03-16T07:34:05.394Z,94.8
2019-03-16T07:34:55.387Z,94.8
2019-03-16T07:35:45.497Z,94.8
2019-03-16T07:36:36.386Z,94.8
2019-03-16T07:37:26.132Z,94.7
2019-03-16T07:38:16.159Z,94.7
2019-03-16T07:39:06.100Z,94.7
2019-03-16T07:39:56.245Z,94.7
2019-03-16T07:40:46.786Z,94.7
2019-03-16T07:41:37.257Z,94.7
2019-03-16T07:42:28.346Z,94.7
2019-03-16T07:43:21.307Z,94.8
2019-03-16T07:44:08.601Z,94.9
2019-03-16T07:45:07.819Z,94.8
2019-03-16T07:45:48.273Z,94.8
2019-03-16T07:46:38.256Z,94.7
2019-03-16T07:47:28.313Z,94.8
2019-03-16T07:48:18.310Z,94.7
2019-03-16T07:49:08.500Z,94.7
2019-03-16T07:49:59.159Z,94.6
2019-03-16T07:50:49.260Z,94.7
2019-03-16T07:51:39.169Z,94.8
2019-03-16T07:52:32.023Z,94.9
2019-03-16T07:53:19.662Z,94.8
2019-03-16T07:54:09.155Z,94.7
2019-03-16T07:54:59.157Z,94.8
2019-03-16T07:55:49.272Z,94.8
2019-03-16T07:56:39.143Z,94.8
2019-03-16T07:57:39.791Z,94.8
2019-03-16T07:58:19.492Z,94.7
2019-03-16T07:59:09.162Z,94.7
2019-03-16T07:59:59.235Z,94.7
2019-03-16T08:00:51.290Z,94.8
2019-03-16T08:01:41.276Z,94.7
2019-03-16T08:02:31.241Z,94.8
2019-03-16T08:03:23.501Z,94.8
2019-03-16T08:04:11.892Z,94.8
2019-03-16T08:05:01.901Z,94.8
2019-03-16T08:05:53.910Z,94.8
2019-03-16T08:06:43.780Z,94.8
2019-03-16T08:07:33.786Z,94.9
2019-03-16T08:08:25.190Z,94.7
2019-03-16T08:09:15.239Z,94.8
2019-03-16T08:10:05.157Z,94.8
2019-03-16T08:10:56.818Z,94.9
2019-03-16T08:11:47.844Z,94.8
2019-03-16T08:12:36.207Z,94.9
2019-03-16T08:13:29.481Z,94.9
2019-03-16T08:14:16.171Z,94.9
2019-03-16T08:15:06.485Z,94.9
2019-03-16T08:15:56.400Z,94.9
2019-03-16T08:16:46.389Z,94.9
2019-03-16T08:17:36.450Z,94.9
2019-03-16T08:18:26.396Z,95
2019-03-16T08:19:16.421Z,95
2019-03-16T08:20:06.431Z,94.9
2019-03-16T08:20:56.422Z,94.9
2019-03-16T08:21:46.401Z,94.9
2019-03-16T08:22:36.430Z,94.9
2019-03-16T08:23:26.900Z,94.9
2019-03-16T08:24:27.039Z,95
2019-03-16T08:25:18.573Z,94.9
2019-03-16T08:26:08.838Z,94.9
2019-03-16T08:26:58.843Z,94.9
2019-03-16T08:27:53.851Z,95
2019-03-16T08:28:38.845Z,94.9
2019-03-16T08:29:29.604Z,94.9
2019-03-16T08:30:18.900Z,94.9
2019-03-16T08:31:08.922Z,94.8
2019-03-16T08:31:58.902Z,95
2019-03-16T08:32:49.035Z,95
2019-03-16T08:33:38.817Z,95
2019-03-16T08:34:29.848Z,94.9
2019-03-16T08:35:19.667Z,95
2019-03-16T08:36:09.628Z,94.9
2019-03-16T08:36:59.631Z,95
2019-03-16T08:37:50.221Z,95
2019-03-16T08:38:39.867Z,95
2019-03-16T08:39:31.086Z,95
2019-03-16T08:40:19.886Z,95.1
2019-03-16T08:41:09.941Z,95.1
2019-03-16T08:41:59.850Z,95.1
2019-03-16T08:42:51.510Z,95.1
2019-03-16T08:43:40.546Z,95.1
2019-03-16T08:44:30.536Z,95
2019-03-16T08:45:20.546Z,95.1
2019-03-16T08:46:10.602Z,95
2019-03-16T08:47:00.566Z,95.1
2019-03-16T08:47:50.570Z,95
2019-03-16T08:48:40.548Z,95.1
2019-03-16T08:49:31.053Z,95
2019-03-16T08:50:20.587Z,95
2019-03-16T08:51:10.731Z,95
2019-03-16T08:52:01.325Z,94.9
2019-03-16T08:52:53.585Z,94.9
2019-03-16T08:53:41.314Z,94.9
2019-03-16T08:54:31.778Z,94.9
2019-03-16T08:55:21.345Z,94.9
2019-03-16T08:56:11.349Z,95
2019-03-16T08:57:01.396Z,94.9
2019-03-16T08:57:51.358Z,94.9
2019-03-16T08:58:41.334Z,94.9
2019-03-16T08:59:32.614Z,94.9
2019-03-16T09:00:21.320Z,94.8
2019-03-16T09:01:14.050Z,94.8
2019-03-16T09:02:04.672Z,94.8
2019-03-16T09:02:54.808Z,94.8
2019-03-16T09:03:45.557Z,94.8
2019-03-16T09:04:35.234Z,94.8
2019-03-16T09:05:25.237Z,94.8
2019-03-16T09:06:15.803Z,94.8
2019-03-16T09:07:07.550Z,94.7
2019-03-16T09:08:20.999Z,94.7
2019-03-16T09:08:49.410Z,94.7
2019-03-16T09:09:41.855Z,94.7
2019-03-16T09:10:31.536Z,94.7
2019-03-16T09:13:30.234Z,94.7
2019-03-16T09:14:19.751Z,94.7
2019-03-16T09:15:09.766Z,94.8
2019-03-16T09:16:00.306Z,94.7
2019-03-16T09:16:49.594Z,94.7
2019-03-16T09:17:39.784Z,94.7
2019-03-16T09:18:29.875Z,94.6
2019-03-16T09:19:19.674Z,94.6
2019-03-16T09:20:09.795Z,94.4
2019-03-16T09:20:59.716Z,94.3
2019-03-16T09:21:54.879Z,94.3
2019-03-16T09:22:46.072Z,94.3
2019-03-16T09:23:36.931Z,94.2
2019-03-16T09:24:35.224Z,94.1
2019-03-16T09:25:26.914Z,93.9
2019-03-16T09:26:19.927Z,93.9
2019-03-16T09:27:13.548Z,93.5
2019-03-16T09:30:14.966Z,93.4
2019-03-16T09:31:10.826Z,93.3
2019-03-16T09:32:11.838Z,93.2
2019-03-16T09:33:03.617Z,92.9
2019-03-16T09:34:10.928Z,93
2019-03-16T09:35:08.713Z,92.7
2019-03-16T09:36:04.734Z,92.7
2019-03-16T09:37:01.785Z,92.6
2019-03-16T09:37:54.605Z,92.6
2019-03-16T09:38:43.456Z,92.5
2019-03-16T09:39:39.778Z,92.6
2019-03-16T09:40:35.862Z,92.5
2019-03-16T09:41:26.131Z,92.6
2019-03-16T09:42:25.696Z,92.5
2019-03-16T09:43:18.891Z,92.5
2019-03-16T09:44:09.144Z,92.6
2019-03-16T09:45:01.865Z,92.5
2019-03-16T09:46:58.601Z,92.5
2019-03-16T09:47:54.371Z,92.4
2019-03-16T09:50:03.374Z,92.3
2019-03-16T09:50:53.277Z,92.2
2019-03-16T09:51:43.297Z,92.1
2019-03-16T09:52:33.097Z,92.1
2019-03-16T09:53:23.204Z,92.1
2019-03-16T09:54:13.114Z,92.1
2019-03-16T09:55:03.128Z,92
2019-03-16T09:55:53.157Z,91.6
2019-03-16T09:56:43.110Z,91.7
2019-03-16T09:58:35.971Z,91.5
2019-03-16T09:59:26.107Z,91.5
2019-03-16T10:00:15.629Z,91.4
2019-03-16T10:01:05.772Z,91.4
2019-03-16T10:01:55.690Z,90.8
2019-03-16T10:02:56.877Z,90.9
2019-03-16T10:03:57.981Z,90.9
2019-03-16T10:04:47.978Z,90.7
2019-03-16T10:05:37.938Z,90.3
2019-03-16T10:06:28.010Z,90.3
2019-03-16T10:07:17.976Z,90.2
2019-03-16T10:08:07.995Z,89.8
2019-03-16T10:08:57.951Z,89.9
2019-03-16T10:09:47.947Z,89.3
2019-03-16T10:10:38.010Z,88.6
2019-03-16T10:11:28.406Z,88.8
2019-03-16T10:12:18.198Z,88.8
2019-03-16T10:13:08.213Z,88.7
2019-03-16T10:13:58.132Z,87.9
2019-03-16T10:14:48.081Z,88.4
2019-03-16T10:15:37.976Z,88.5
2019-03-16T10:16:28.140Z,88.5
2019-03-16T10:17:18.028Z,88.2
2019-03-16T10:18:08.250Z,87.6
2019-03-16T10:18:58.013Z,87.1
2019-03-16T10:19:48.199Z,86.6
2019-03-16T10:20:37.945Z,86.5
2019-03-16T10:21:27.992Z,86.5
2019-03-16T10:22:17.994Z,86.8
2019-03-16T10:23:07.962Z,86.9
2019-03-16T10:23:57.987Z,86.5
2019-03-16T10:24:48.036Z,86.5
2019-03-16T10:25:38.002Z,86.5
2019-03-16T10:26:28.163Z,86.4
2019-03-16T10:27:18.049Z,86.2
2019-03-16T10:28:08.019Z,85.7
2019-03-16T10:28:57.957Z,85.8
2019-03-16T10:29:47.989Z,85.5
2019-03-16T10:30:40.386Z,85.7
2019-03-16T10:31:32.147Z,84.9
2019-03-16T10:32:21.078Z,85.4
2019-03-16T10:33:11.206Z,85.3
2019-03-16T10:34:02.205Z,85.1
2019-03-16T10:34:51.525Z,85.2
2019-03-16T10:35:44.076Z,85
2019-03-16T10:36:34.102Z,84.3
2019-03-16T10:37:24.133Z,84.4
2019-03-16T10:38:15.996Z,83.4
2019-03-16T10:39:06.042Z,83.8
2019-03-16T10:39:56.031Z,83.1
2019-03-16T10:40:46.038Z,83.1
2019-03-16T10:41:36.052Z,83.6
2019-03-16T10:42:26.039Z,83.2
2019-03-16T10:43:16.023Z,83.1
2019-03-16T10:44:07.024Z,83.3
2019-03-16T10:44:57.002Z,83.5
2019-03-16T10:45:47.086Z,83.6
2019-03-16T10:46:37.042Z,83.7
2019-03-16T10:47:27.046Z,83.7
2019-03-16T10:48:17.746Z,83.3
2019-03-16T10:49:12.900Z,83.4
2019-03-16T10:50:02.537Z,83.4
2019-03-16T10:51:00.571Z,83.1
2019-03-16T10:51:54.120Z,83.2
2019-03-16T10:52:48.055Z,83.2
2019-03-16T10:53:37.958Z,83.2
2019-03-16T10:54:28.043Z,83.1
2019-03-16T10:55:19.150Z,81.2
2019-03-16T10:56:09.103Z,81.3
2019-03-16T10:56:59.188Z,81.2
2019-03-16T10:57:49.191Z,81.1
2019-03-16T10:58:39.126Z,80.7
2019-03-16T10:59:29.092Z,81
2019-03-16T11:00:19.133Z,80.9
2019-03-16T11:01:09.115Z,80.8
2019-03-16T11:01:59.850Z,80.3
2019-03-16T11:02:54.711Z,79.9
2019-03-16T11:03:49.486Z,79.6
2019-03-16T11:04:39.460Z,79.6
2019-03-16T11:05:29.610Z,79.4
2019-03-16T11:06:19.484Z,78.6
2019-03-16T11:07:09.575Z,78.9
2019-03-16T11:08:00.850Z,78.4
2019-03-16T11:08:49.519Z,78
2019-03-16T11:09:39.482Z,78.5
2019-03-16T11:10:29.548Z,78.8
2019-03-16T11:11:19.544Z,78.8
2019-03-16T11:12:09.509Z,78.7
2019-03-16T11:12:59.510Z,78.1
2019-03-16T11:13:49.511Z,78.5
2019-03-16T11:14:41.109Z,77.9
2019-03-16T11:15:29.528Z,77.9
2019-03-16T11:16:19.603Z,78.2
2019-03-16T11:17:09.486Z,77.9
2019-03-16T11:17:59.963Z,78.1
2019-03-16T11:18:49.521Z,77.4
2019-03-16T11:19:39.542Z,77.8
2019-03-16T11:20:29.591Z,77.3
2019-03-16T11:21:19.494Z,77.4
2019-03-16T11:22:09.508Z,77.8